sensor_id;sensor_type;location;lat;lon;timestamp;pressure;altitude;pressure_sealevel;temperature;humidity
23953;BME280;12163;49.316;6.092;2023-04-02T00:00:19;98615.78;;;9.78;83.55
23953;BME280;12163;49.316;6.092;2023-04-02T00:03:06;98620.38;;;9.77;83.77
23953;BME280;12163;49.316;6.092;2023-04-02T00:08:27;98618.28;;;9.74;83.65
23953;BME280;12163;49.316;6.092;2023-04-02T00:10:58;98624.16;;;9.76;83.90
23953;BME280;12163;49.316;6.092;2023-04-02T00:13:35;98621.78;;;9.75;84.01
23953;BME280;12163;49.316;6.092;2023-04-02T00:16:05;98622.38;;;9.72;83.61
23953;BME280;12163;49.316;6.092;2023-04-02T00:18:35;98623.00;;;9.69;83.62
23953;BME280;12163;49.316;6.092;2023-04-02T00:21:29;98629.16;;;9.69;83.48
23953;BME280;12163;49.316;6.092;2023-04-02T00:23:59;98638.94;;;9.65;83.67
23953;BME280;12163;49.316;6.092;2023-04-02T00:26:33;98633.56;;;9.65;84.09
23953;BME280;12163;49.316;6.092;2023-04-02T00:29:01;98635.97;;;9.67;84.27
23953;BME280;12163;49.316;6.092;2023-04-02T00:31:29;98641.34;;;9.67;83.96
23953;BME280;12163;49.316;6.092;2023-04-02T00:33:57;98639.53;;;9.62;83.76
23953;BME280;12163;49.316;6.092;2023-04-02T00:36:27;98638.56;;;9.58;83.72
23953;BME280;12163;49.316;6.092;2023-04-02T00:38:57;98645.53;;;9.59;84.00
23953;BME280;12163;49.316;6.092;2023-04-02T00:41:27;98646.31;;;9.60;83.99
23953;BME280;12163;49.316;6.092;2023-04-02T00:43:56;98649.50;;;9.62;84.25
23953;BME280;12163;49.316;6.092;2023-04-02T00:46:30;98649.81;;;9.60;84.04
23953;BME280;12163;49.316;6.092;2023-04-02T00:49:37;98642.03;;;9.59;84.04
23953;BME280;12163;49.316;6.092;2023-04-02T00:52:15;98652.81;;;9.59;83.91
23953;BME280;12163;49.316;6.092;2023-04-02T00:54:48;98656.91;;;9.56;84.16
23953;BME280;12163;49.316;6.092;2023-04-02T00:57:21;98654.78;;;9.53;84.25
23953;BME280;12163;49.316;6.092;2023-04-02T01:05:44;98648.84;;;9.56;84.31
23953;BME280;12163;49.316;6.092;2023-04-02T01:11:06;98658.50;;;9.57;84.70
23953;BME280;12163;49.316;6.092;2023-04-02T01:13:47;98651.00;;;9.54;84.94
23953;BME280;12163;49.316;6.092;2023-04-02T01:16:32;98667.47;;;9.53;84.64
23953;BME280;12163;49.316;6.092;2023-04-02T01:19:23;98658.09;;;9.50;84.74
23953;BME280;12163;49.316;6.092;2023-04-02T01:22:09;98666.28;;;9.45;84.60
23953;BME280;12163;49.316;6.092;2023-04-02T01:24:40;98659.28;;;9.44;84.80
23953;BME280;12163;49.316;6.092;2023-04-02T01:27:20;98664.19;;;9.42;84.73
23953;BME280;12163;49.316;6.092;2023-04-02T01:29:55;98670.66;;;9.41;84.71
23953;BME280;12163;49.316;6.092;2023-04-02T01:32:25;98672.84;;;9.39;84.78
23953;BME280;12163;49.316;6.092;2023-04-02T01:34:54;98677.66;;;9.42;84.96
23953;BME280;12163;49.316;6.092;2023-04-02T01:42:32;98673.84;;;9.43;84.95
23953;BME280;12163;49.316;6.092;2023-04-02T01:45:08;98671.66;;;9.45;84.95
23953;BME280;12163;49.316;6.092;2023-04-02T01:47:36;98679.25;;;9.43;84.52
23953;BME280;12163;49.316;6.092;2023-04-02T01:52:47;98668.06;;;9.36;84.65
23953;BME280;12163;49.316;6.092;2023-04-02T01:55:18;98678.84;;;9.36;85.18
23953;BME280;12163;49.316;6.092;2023-04-02T01:57:49;98685.31;;;9.35;85.12
23953;BME280;12163;49.316;6.092;2023-04-02T02:00:17;98677.25;;;9.35;84.89
23953;BME280;12163;49.316;6.092;2023-04-02T02:02:48;98678.63;;;9.33;85.18
23953;BME280;12163;49.316;6.092;2023-04-02T02:05:18;98685.59;;;9.34;85.31
23953;BME280;12163;49.316;6.092;2023-04-02T02:07:46;98678.34;;;9.34;85.48
23953;BME280;12163;49.316;6.092;2023-04-02T02:10:16;98692.59;;;9.35;85.15
23953;BME280;12163;49.316;6.092;2023-04-02T02:12:44;98691.81;;;9.34;85.38
23953;BME280;12163;49.316;6.092;2023-04-02T02:15:22;98688.41;;;9.29;85.31
23953;BME280;12163;49.316;6.092;2023-04-02T02:17:49;98694.56;;;9.29;85.29
23953;BME280;12163;49.316;6.092;2023-04-02T02:20:16;98692.19;;;9.28;85.75
23953;BME280;12163;49.316;6.092;2023-04-02T02:22:46;98686.50;;;9.29;85.52
23953;BME280;12163;49.316;6.092;2023-04-02T02:25:23;98712.31;;;9.30;85.60
23953;BME280;12163;49.316;6.092;2023-04-02T02:28:30;98695.66;;;9.28;85.62
23953;BME280;12163;49.316;6.092;2023-04-02T02:31:01;98703.25;;;9.26;85.65
23953;BME280;12163;49.316;6.092;2023-04-02T02:33:36;98710.91;;;9.19;85.63
23953;BME280;12163;49.316;6.092;2023-04-02T02:41:32;98708.44;;;9.23;86.04
23953;BME280;12163;49.316;6.092;2023-04-02T02:46:32;98710.72;;;9.29;85.70
23953;BME280;12163;49.316;6.092;2023-04-02T02:49:02;98714.50;;;9.28;85.96
23953;BME280;12163;49.316;6.092;2023-04-02T02:51:44;98716.09;;;9.29;85.82
23953;BME280;12163;49.316;6.092;2023-04-02T02:54:13;98709.13;;;9.28;85.88
23953;BME280;12163;49.316;6.092;2023-04-02T02:56:45;98711.31;;;9.26;86.21
23953;BME280;12163;49.316;6.092;2023-04-02T02:59:14;98712.91;;;9.27;86.11
23953;BME280;12163;49.316;6.092;2023-04-02T03:01:43;98714.50;;;9.28;86.00
23953;BME280;12163;49.316;6.092;2023-04-02T03:04:10;98710.31;;;9.22;85.80
23953;BME280;12163;49.316;6.092;2023-04-02T03:06:37;98711.91;;;9.23;85.98
23953;BME280;12163;49.316;6.092;2023-04-02T03:11:39;98720.00;;;9.23;86.20
23953;BME280;12163;49.316;6.092;2023-04-02T03:16:53;98724.59;;;9.23;86.30
23953;BME280;12163;49.316;6.092;2023-04-02T03:19:44;98730.84;;;9.18;86.75
23953;BME280;12163;49.316;6.092;2023-04-02T03:22:27;98727.06;;;9.19;86.69
23953;BME280;12163;49.316;6.092;2023-04-02T03:25:38;98735.22;;;9.14;86.79
23953;BME280;12163;49.316;6.092;2023-04-02T03:28:12;98722.56;;;9.15;86.88
23953;BME280;12163;49.316;6.092;2023-04-02T03:30:49;98736.84;;;9.15;86.97
23953;BME280;12163;49.316;6.092;2023-04-02T03:34:10;98734.91;;;9.16;86.89
23953;BME280;12163;49.316;6.092;2023-04-02T03:36:28;98738.44;;;9.16;87.08
23953;BME280;12163;49.316;6.092;2023-04-02T03:39:10;98739.22;;;9.17;87.27
23953;BME280;12163;49.316;6.092;2023-04-02T03:41:46;98744.91;;;9.15;87.19
23953;BME280;12163;49.316;6.092;2023-04-02T03:44:28;98743.81;;;9.16;86.72
23953;BME280;12163;49.316;6.092;2023-04-02T03:47:02;98742.41;;;9.19;87.01
23953;BME280;12163;49.316;6.092;2023-04-02T03:49:39;98758.78;;;9.22;87.26
23953;BME280;12163;49.316;6.092;2023-04-02T03:52:15;98751.78;;;9.21;87.19
23953;BME280;12163;49.316;6.092;2023-04-02T03:54:45;98758.78;;;9.22;87.29
23953;BME280;12163;49.316;6.092;2023-04-02T03:57:32;98764.16;;;9.22;87.15
23953;BME280;12163;49.316;6.092;2023-04-02T04:00:23;98768.16;;;9.25;87.11
23953;BME280;12163;49.316;6.092;2023-04-02T04:02:54;98775.44;;;9.24;87.07
23953;BME280;12163;49.316;6.092;2023-04-02T04:05:29;98771.13;;;9.23;87.41
23953;BME280;12163;49.316;6.092;2023-04-02T04:08:07;98779.13;;;9.28;87.40
23953;BME280;12163;49.316;6.092;2023-04-02T04:10:39;98775.94;;;9.26;87.00
23953;BME280;12163;49.316;6.092;2023-04-02T04:13:12;98779.22;;;9.23;87.39
23953;BME280;12163;49.316;6.092;2023-04-02T04:15:58;98787.28;;;9.23;87.26
23953;BME280;12163;49.316;6.092;2023-04-02T04:18:42;98788.09;;;9.24;87.55
23953;BME280;12163;49.316;6.092;2023-04-02T04:21:19;98792.06;;;9.26;87.59
23953;BME280;12163;49.316;6.092;2023-04-02T04:23:59;98800.66;;;9.28;87.65
23953;BME280;12163;49.316;6.092;2023-04-02T04:34:54;98813.84;;;9.30;87.48
23953;BME280;12163;49.316;6.092;2023-04-02T04:37:27;98810.28;;;9.34;87.41
23953;BME280;12163;49.316;6.092;2023-04-02T04:40:09;98818.84;;;9.36;87.15
23953;BME280;12163;49.316;6.092;2023-04-02T04:42:43;98817.16;;;9.40;87.24
23953;BME280;12163;49.316;6.092;2023-04-02T04:47:59;98827.56;;;9.47;87.36
23953;BME280;12163;49.316;6.092;2023-04-02T04:50:45;98831.34;;;9.46;86.91
23953;BME280;12163;49.316;6.092;2023-04-02T04:53:18;98827.75;;;9.50;86.86
23953;BME280;12163;49.316;6.092;2023-04-02T04:55:47;98832.03;;;9.51;86.93
23953;BME280;12163;49.316;6.092;2023-04-02T04:58:24;98833.63;;;9.52;86.98
23953;BME280;12163;49.316;6.092;2023-04-02T05:00:59;98842.66;;;9.61;87.01
23953;BME280;12163;49.316;6.092;2023-04-02T05:03:49;98851.19;;;9.95;87.79
23953;BME280;12163;49.316;6.092;2023-04-02T05:08:59;98839.97;;;10.47;85.96
23953;BME280;12163;49.316;6.092;2023-04-02T05:11:43;98852.53;;;10.51;84.39
23953;BME280;12163;49.316;6.092;2023-04-02T05:14:19;98851.53;;;10.47;84.21
23953;BME280;12163;49.316;6.092;2023-04-02T05:16:52;98859.53;;;10.39;84.25
23953;BME280;12163;49.316;6.092;2023-04-02T05:25:17;98866.72;;;10.57;83.66
23953;BME280;12163;49.316;6.092;2023-04-02T05:27:52;98871.09;;;10.66;83.86
23953;BME280;12163;49.316;6.092;2023-04-02T05:33:00;98886.69;;;10.56;82.46
23953;BME280;12163;49.316;6.092;2023-04-02T05:35:30;98888.31;;;10.57;82.63
23953;BME280;12163;49.316;6.092;2023-04-02T05:37:58;98886.91;;;10.59;82.89
23953;BME280;12163;49.316;6.092;2023-04-02T05:40:32;98886.91;;;10.59;82.60
23953;BME280;12163;49.316;6.092;2023-04-02T05:43:02;98895.78;;;10.46;82.42
23953;BME280;12163;49.316;6.092;2023-04-02T05:45:34;98889.41;;;10.29;82.35
23953;BME280;12163;49.316;6.092;2023-04-02T05:48:11;98894.09;;;10.23;82.54
23953;BME280;12163;49.316;6.092;2023-04-02T05:50:42;98903.47;;;10.12;82.65
23953;BME280;12163;49.316;6.092;2023-04-02T05:58:46;98912.25;;;9.86;82.90
23953;BME280;12163;49.316;6.092;2023-04-02T06:01:41;98919.94;;;9.79;82.97
23953;BME280;12163;49.316;6.092;2023-04-02T06:07:12;98930.06;;;9.69;82.62
23953;BME280;12163;49.316;6.092;2023-04-02T06:09:45;98936.25;;;9.69;83.13
23953;BME280;12163;49.316;6.092;2023-04-02T06:12:45;98950.81;;;9.68;83.09
23953;BME280;12163;49.316;6.092;2023-04-02T06:15:16;98949.72;;;9.69;82.92
23953;BME280;12163;49.316;6.092;2023-04-02T06:17:51;98944.91;;;9.66;82.73
23953;BME280;12163;49.316;6.092;2023-04-02T06:20:19;98957.28;;;9.67;82.59
23953;BME280;12163;49.316;6.092;2023-04-02T06:23:01;98952.78;;;9.63;81.71
23953;BME280;12163;49.316;6.092;2023-04-02T06:25:34;98967.56;;;9.65;81.85
23953;BME280;12163;49.316;6.092;2023-04-02T06:28:05;98963.28;;;9.64;82.21
23953;BME280;12163;49.316;6.092;2023-04-02T06:30:35;98967.06;;;9.63;81.01
23953;BME280;12163;49.316;6.092;2023-04-02T06:33:03;98972.72;;;9.62;81.22
23953;BME280;12163;49.316;6.092;2023-04-02T06:35:33;98987.00;;;9.62;81.13
23953;BME280;12163;49.316;6.092;2023-04-02T06:38:03;98981.91;;;9.61;80.91
23953;BME280;12163;49.316;6.092;2023-04-02T06:40:45;98995.72;;;9.54;80.75
23953;BME280;12163;49.316;6.092;2023-04-02T06:45:50;99009.00;;;9.51;80.74
23953;BME280;12163;49.316;6.092;2023-04-02T06:48:19;99014.16;;;9.47;81.17
23953;BME280;12163;49.316;6.092;2023-04-02T06:50:47;99009.34;;;9.44;81.04
23953;BME280;12163;49.316;6.092;2023-04-02T06:53:20;99017.44;;;9.44;81.31
23953;BME280;12163;49.316;6.092;2023-04-02T06:58:22;99019.34;;;9.44;81.20
23953;BME280;12163;49.316;6.092;2023-04-02T07:00:49;99028.47;;;9.43;81.05
23953;BME280;12163;49.316;6.092;2023-04-02T07:03:19;99031.47;;;9.41;81.01
23953;BME280;12163;49.316;6.092;2023-04-02T07:05:47;99045.44;;;9.43;81.17
23953;BME280;12163;49.316;6.092;2023-04-02T07:08:13;99044.63;;;9.43;81.13
23953;BME280;12163;49.316;6.092;2023-04-02T07:10:40;99046.28;;;9.44;80.83
23953;BME280;12163;49.316;6.092;2023-04-02T07:13:15;99055.13;;;9.44;80.82
23953;BME280;12163;49.316;6.092;2023-04-02T07:15:47;99054.03;;;9.45;80.46
23953;BME280;12163;49.316;6.092;2023-04-02T07:20:49;99060.44;;;9.49;80.49
23953;BME280;12163;49.316;6.092;2023-04-02T07:23:17;99071.44;;;9.53;80.19
23953;BME280;12163;49.316;6.092;2023-04-02T07:25:44;99070.63;;;9.52;80.45
23953;BME280;12163;49.316;6.092;2023-04-02T07:28:11;99070.63;;;9.52;79.51
23953;BME280;12163;49.316;6.092;2023-04-02T07:30:40;99070.34;;;9.54;79.60
23953;BME280;12163;49.316;6.092;2023-04-02T07:33:08;99073.56;;;9.56;79.73
23953;BME280;12163;49.316;6.092;2023-04-02T07:35:35;99070.00;;;9.60;79.83
23953;BME280;12163;49.316;6.092;2023-04-02T07:38:02;99082.03;;;9.68;80.26
23953;BME280;12163;49.316;6.092;2023-04-02T07:40:29;99088.63;;;9.75;80.05
23953;BME280;12163;49.316;6.092;2023-04-02T07:42:55;99095.34;;;9.78;79.61
23953;BME280;12163;49.316;6.092;2023-04-02T07:45:22;99097.25;;;9.77;79.24
23953;BME280;12163;49.316;6.092;2023-04-02T07:47:48;99103.00;;;9.71;79.08
23953;BME280;12163;49.316;6.092;2023-04-02T07:50:15;99098.97;;;9.68;79.12
23953;BME280;12163;49.316;6.092;2023-04-02T07:52:43;99115.16;;;9.68;80.03
23953;BME280;12163;49.316;6.092;2023-04-02T07:55:11;99124.03;;;9.69;80.37
23953;BME280;12163;49.316;6.092;2023-04-02T07:57:55;99126.50;;;9.65;80.06
23953;BME280;12163;49.316;6.092;2023-04-02T08:00:23;99125.13;;;9.68;80.56
23953;BME280;12163;49.316;6.092;2023-04-02T08:02:50;99134.00;;;9.68;80.59
23953;BME280;12163;49.316;6.092;2023-04-02T08:05:17;99141.06;;;9.64;80.95
23953;BME280;12163;49.316;6.092;2023-04-02T08:07:54;99137.56;;;9.64;81.19
23953;BME280;12163;49.316;6.092;2023-04-02T08:10:22;99147.53;;;9.63;81.25
23953;BME280;12163;49.316;6.092;2023-04-02T08:12:49;99147.03;;;9.61;81.30
23953;BME280;12163;49.316;6.092;2023-04-02T08:15:16;99148.63;;;9.62;81.50
23953;BME280;12163;49.316;6.092;2023-04-02T08:17:44;99145.63;;;9.64;81.34
23953;BME280;12163;49.316;6.092;2023-04-02T08:20:20;99157.50;;;9.63;81.42
23953;BME280;12163;49.316;6.092;2023-04-02T08:22:48;99160.44;;;9.66;81.20
23953;BME280;12163;49.316;6.092;2023-04-02T08:25:16;99168.44;;;9.71;81.24
23953;BME280;12163;49.316;6.092;2023-04-02T08:27:45;99176.25;;;9.73;80.59
23953;BME280;12163;49.316;6.092;2023-04-02T08:30:12;99177.91;;;9.69;80.14
23953;BME280;12163;49.316;6.092;2023-04-02T08:32:39;99184.09;;;9.69;80.70
23953;BME280;12163;49.316;6.092;2023-04-02T08:35:10;99187.88;;;9.68;80.68
23953;BME280;12163;49.316;6.092;2023-04-02T08:37:37;99191.16;;;9.65;81.20
23953;BME280;12163;49.316;6.092;2023-04-02T08:40:05;99203.81;;;9.65;81.46
23953;BME280;12163;49.316;6.092;2023-04-02T08:42:45;99207.09;;;9.62;80.84
23953;BME280;12163;49.316;6.092;2023-04-02T08:45:22;99207.38;;;9.60;80.70
23953;BME280;12163;49.316;6.092;2023-04-02T08:47:56;99216.56;;;9.59;81.12
23953;BME280;12163;49.316;6.092;2023-04-02T08:50:31;99224.91;;;9.58;80.64
23953;BME280;12163;49.316;6.092;2023-04-02T08:53:02;99228.69;;;9.57;80.49
23953;BME280;12163;49.316;6.092;2023-04-02T09:00:43;99238.88;;;9.60;80.56
23953;BME280;12163;49.316;6.092;2023-04-02T09:03:20;99233.75;;;9.63;80.74
23953;BME280;12163;49.316;6.092;2023-04-02T09:05:51;99246.91;;;9.65;80.54
23953;BME280;12163;49.316;6.092;2023-04-02T09:08:23;99240.69;;;9.69;80.62
23953;BME280;12163;49.316;6.092;2023-04-02T09:10:56;99244.41;;;9.73;80.58
23953;BME280;12163;49.316;6.092;2023-04-02T09:13:28;99251.91;;;9.76;80.16
23953;BME280;12163;49.316;6.092;2023-04-02T09:16:12;99259.44;;;9.79;80.58
23953;BME280;12163;49.316;6.092;2023-04-02T09:18:41;99262.66;;;9.81;79.92
23953;BME280;12163;49.316;6.092;2023-04-02T09:23:57;99256.88;;;9.88;80.13
23953;BME280;12163;49.316;6.092;2023-04-02T09:26:29;99267.91;;;9.91;79.85
23953;BME280;12163;49.316;6.092;2023-04-02T09:31:49;99273.28;;;9.91;80.00
23953;BME280;12163;49.316;6.092;2023-04-02T09:34:32;99281.81;;;10.03;79.99
23953;BME280;12163;49.316;6.092;2023-04-02T09:37:15;99283.28;;;10.14;80.11
23953;BME280;12163;49.316;6.092;2023-04-02T09:39:42;99289.59;;;10.28;80.58
23953;BME280;12163;49.316;6.092;2023-04-02T09:42:32;99301.34;;;10.37;79.42
23953;BME280;12163;49.316;6.092;2023-04-02T09:47:48;99298.44;;;10.52;78.86
23953;BME280;12163;49.316;6.092;2023-04-02T09:50:30;99308.16;;;10.53;78.31
23953;BME280;12163;49.316;6.092;2023-04-02T09:52:58;99304.06;;;10.55;78.34
23953;BME280;12163;49.316;6.092;2023-04-02T09:55:41;99320.97;;;10.61;78.29
23953;BME280;12163;49.316;6.092;2023-04-02T09:58:15;99317.19;;;10.62;78.18
23953;BME280;12163;49.316;6.092;2023-04-02T10:00:50;99317.34;;;10.70;78.46
23953;BME280;12163;49.316;6.092;2023-04-02T10:03:24;99323.97;;;10.78;78.50
23953;BME280;12163;49.316;6.092;2023-04-02T10:06:08;99326.09;;;10.81;77.96
23953;BME280;12163;49.316;6.092;2023-04-02T10:08:37;99341.69;;;10.84;77.35
23953;BME280;12163;49.316;6.092;2023-04-02T10:11:07;99331.56;;;10.76;77.41
23953;BME280;12163;49.316;6.092;2023-04-02T10:16:35;99351.63;;;10.70;78.30
23953;BME280;12163;49.316;6.092;2023-04-02T10:19:17;99350.47;;;10.76;78.72
23953;BME280;12163;49.316;6.092;2023-04-02T10:21:48;99355.00;;;10.80;79.48
23953;BME280;12163;49.316;6.092;2023-04-02T10:24:16;99359.31;;;10.81;78.57
23953;BME280;12163;49.316;6.092;2023-04-02T10:34:42;99370.59;;;11.02;79.04
23953;BME280;12163;49.316;6.092;2023-04-02T10:38:06;99369.00;;;11.01;78.41
23953;BME280;12163;49.316;6.092;2023-04-02T10:45:43;99384.41;;;11.19;79.40
23953;BME280;12163;49.316;6.092;2023-04-02T10:51:04;99371.81;;;11.28;79.57
23953;BME280;12163;49.316;6.092;2023-04-02T10:56:29;99395.00;;;11.34;79.01
23953;BME280;12163;49.316;6.092;2023-04-02T10:59:18;99396.88;;;11.33;79.18
23953;BME280;12163;49.316;6.092;2023-04-02T11:01:47;99400.94;;;11.31;78.15
23953;BME280;12163;49.316;6.092;2023-04-02T11:04:36;99401.53;;;11.28;79.23
23953;BME280;12163;49.316;6.092;2023-04-02T11:07:14;99407.97;;;11.32;79.76
23953;BME280;12163;49.316;6.092;2023-04-02T11:09:46;99414.91;;;11.38;79.68
23953;BME280;12163;49.316;6.092;2023-04-02T11:12:40;99415.41;;;11.40;79.58
23953;BME280;12163;49.316;6.092;2023-04-02T11:15:14;99413.81;;;11.39;78.17
23953;BME280;12163;49.316;6.092;2023-04-02T11:17:43;99418.72;;;11.37;78.82
23953;BME280;12163;49.316;6.092;2023-04-02T11:23:17;99419.72;;;11.41;78.07
23953;BME280;12163;49.316;6.092;2023-04-02T11:25:45;99423.75;;;11.43;78.83
23953;BME280;12163;49.316;6.092;2023-04-02T11:28:25;99429.66;;;11.45;78.65
23953;BME280;12163;49.316;6.092;2023-04-02T11:30:54;99435.25;;;11.49;78.23
23953;BME280;12163;49.316;6.092;2023-04-02T11:33:38;99435.84;;;11.46;77.62
23953;BME280;12163;49.316;6.092;2023-04-02T11:39:44;99456.19;;;11.43;78.24
23953;BME280;12163;49.316;6.092;2023-04-02T11:44:44;99447.25;;;11.43;77.72
23953;BME280;12163;49.316;6.092;2023-04-02T11:49:58;99464.63;;;11.37;77.02
23953;BME280;12163;49.316;6.092;2023-04-02T11:52:48;99462.81;;;11.32;77.24
23953;BME280;12163;49.316;6.092;2023-04-02T11:55:25;99472.78;;;11.32;77.95
23953;BME280;12163;49.316;6.092;2023-04-02T12:06:05;99487.41;;;11.31;79.18
23953;BME280;12163;49.316;6.092;2023-04-02T12:11:42;99490.72;;;11.46;79.79
23953;BME280;12163;49.316;6.092;2023-04-02T12:16:55;99496.91;;;11.47;80.05
23953;BME280;12163;49.316;6.092;2023-04-02T12:19:22;99499.09;;;11.45;79.63
23953;BME280;12163;49.316;6.092;2023-04-02T12:21:51;99504.06;;;11.38;80.36
23953;BME280;12163;49.316;6.092;2023-04-02T12:24:22;99502.81;;;11.30;80.59
23953;BME280;12163;49.316;6.092;2023-04-02T12:27:16;99507.78;;;11.23;81.11
23953;BME280;12163;49.316;6.092;2023-04-02T12:29:49;99524.34;;;11.17;82.11
23953;BME280;12163;49.316;6.092;2023-04-02T12:32:22;99523.06;;;11.09;82.08
23953;BME280;12163;49.316;6.092;2023-04-02T12:34:50;99525.59;;;11.01;83.08
23953;BME280;12163;49.316;6.092;2023-04-02T12:37:25;99525.66;;;10.96;83.26
23953;BME280;12163;49.316;6.092;2023-04-02T12:40:00;99532.75;;;10.92;82.58
23953;BME280;12163;49.316;6.092;2023-04-02T12:42:34;99528.47;;;10.86;82.74
23953;BME280;12163;49.316;6.092;2023-04-02T12:45:03;99539.25;;;10.86;83.46
23953;BME280;12163;49.316;6.092;2023-04-02T12:47:30;99544.66;;;10.86;83.20
23953;BME280;12163;49.316;6.092;2023-04-02T12:49:59;99546.28;;;10.87;83.63
23953;BME280;12163;49.316;6.092;2023-04-02T12:52:27;99551.91;;;10.90;83.56
23953;BME280;12163;49.316;6.092;2023-04-02T12:55:01;99555.94;;;10.93;82.85
23953;BME280;12163;49.316;6.092;2023-04-02T12:57:30;99559.75;;;10.92;83.32
23953;BME280;12163;49.316;6.092;2023-04-02T12:59:59;99565.13;;;10.92;82.64
23953;BME280;12163;49.316;6.092;2023-04-02T13:02:29;99570.53;;;10.92;82.97
23953;BME280;12163;49.316;6.092;2023-04-02T13:04:58;99569.72;;;10.91;82.38
23953;BME280;12163;49.316;6.092;2023-04-02T13:07:32;99567.03;;;10.91;82.20
23953;BME280;12163;49.316;6.092;2023-04-02T13:10:01;99569.97;;;10.95;81.89
23953;BME280;12163;49.316;6.092;2023-04-02T13:15:07;99564.56;;;10.95;81.62
23953;BME280;12163;49.316;6.092;2023-04-02T13:17:47;99569.31;;;11.03;82.18
23953;BME280;12163;49.316;6.092;2023-04-02T13:20:37;99578.50;;;11.02;80.79
23953;BME280;12163;49.316;6.092;2023-04-02T13:26:02;99584.56;;;10.94;80.50
23953;BME280;12163;49.316;6.092;2023-04-02T13:28:33;99584.50;;;10.99;80.49
23953;BME280;12163;49.316;6.092;2023-04-02T13:31:00;99576.84;;;11.06;80.66
23953;BME280;12163;49.316;6.092;2023-04-02T13:33:27;99585.94;;;11.15;80.59
23953;BME280;12163;49.316;6.092;2023-04-02T13:35:54;99579.38;;;11.21;79.97
23953;BME280;12163;49.316;6.092;2023-04-02T13:38:20;99583.63;;;11.27;79.94
23953;BME280;12163;49.316;6.092;2023-04-02T13:40:47;99581.44;;;11.29;78.42
23953;BME280;12163;49.316;6.092;2023-04-02T13:43:17;99584.66;;;11.31;78.50
23953;BME280;12163;49.316;6.092;2023-04-02T13:45:49;99591.66;;;11.32;79.00
23953;BME280;12163;49.316;6.092;2023-04-02T13:48:17;99600.31;;;11.34;78.82
23953;BME280;12163;49.316;6.092;2023-04-02T13:50:44;99601.91;;;11.35;77.79
23953;BME280;12163;49.316;6.092;2023-04-02T13:53:21;99606.50;;;11.34;78.49
23953;BME280;12163;49.316;6.092;2023-04-02T13:55:51;99608.34;;;11.39;78.21
23953;BME280;12163;49.316;6.092;2023-04-02T13:58:17;99607.25;;;11.40;78.48
23953;BME280;12163;49.316;6.092;2023-04-02T14:00:44;99612.34;;;11.41;77.63
23953;BME280;12163;49.316;6.092;2023-04-02T14:03:19;99624.06;;;11.32;76.81
23953;BME280;12163;49.316;6.092;2023-04-02T14:14:20;99627.69;;;10.99;77.63
23953;BME280;12163;49.316;6.092;2023-04-02T14:30:17;99671.16;;;10.97;76.13
23953;BME280;12163;49.316;6.092;2023-04-02T14:32:55;99664.16;;;10.96;75.95
23953;BME280;12163;49.316;6.092;2023-04-02T14:35:44;99671.53;;;10.91;75.34
23953;BME280;12163;49.316;6.092;2023-04-02T14:38:29;99671.00;;;10.89;75.60
23953;BME280;12163;49.316;6.092;2023-04-02T14:41:19;99685.03;;;10.91;75.68
23953;BME280;12163;49.316;6.092;2023-04-02T14:44:01;99690.69;;;10.89;75.67
23953;BME280;12163;49.316;6.092;2023-04-02T14:46:31;99690.69;;;10.89;75.07
23953;BME280;12163;49.316;6.092;2023-04-02T14:49:16;99692.63;;;10.84;75.18
23953;BME280;12163;49.316;6.092;2023-04-02T14:51:52;99691.81;;;10.83;75.15
23953;BME280;12163;49.316;6.092;2023-04-02T14:54:33;99697.75;;;10.85;75.55
23953;BME280;12163;49.316;6.092;2023-04-02T15:02:51;99698.69;;;10.71;74.78
23953;BME280;12163;49.316;6.092;2023-04-02T15:05:44;99691.63;;;10.75;74.23
23953;BME280;12163;49.316;6.092;2023-04-02T15:08:14;99707.19;;;10.83;74.89
23953;BME280;12163;49.316;6.092;2023-04-02T15:13:44;99710.44;;;10.85;72.50
23953;BME280;12163;49.316;6.092;2023-04-02T15:16:20;99717.22;;;10.82;72.30
23953;BME280;12163;49.316;6.092;2023-04-02T15:18:50;99718.00;;;10.83;72.51
23953;BME280;12163;49.316;6.092;2023-04-02T15:24:01;99722.34;;;10.79;72.21
23953;BME280;12163;49.316;6.092;2023-04-02T15:31:28;99736.53;;;10.61;72.43
23953;BME280;12163;49.316;6.092;2023-04-02T15:44:30;99751.22;;;10.40;72.69
23953;BME280;12163;49.316;6.092;2023-04-02T15:47:25;99758.56;;;10.34;72.88
23953;BME280;12163;49.316;6.092;2023-04-02T15:50:29;99759.88;;;10.37;72.21
23953;BME280;12163;49.316;6.092;2023-04-02T15:53:26;99765.56;;;10.35;72.80
23953;BME280;12163;49.316;6.092;2023-04-02T15:58:49;99779.56;;;10.42;72.74
23953;BME280;12163;49.316;6.092;2023-04-02T16:04:12;99782.31;;;10.32;72.57
23953;BME280;12163;49.316;6.092;2023-04-02T16:06:59;99791.22;;;10.28;72.38
23953;BME280;12163;49.316;6.092;2023-04-02T16:12:14;99802.03;;;10.23;72.86
23953;BME280;12163;49.316;6.092;2023-04-02T16:14:47;99799.88;;;10.20;72.77
23953;BME280;12163;49.316;6.092;2023-04-02T16:17:23;99802.59;;;10.15;72.74
23953;BME280;12163;49.316;6.092;2023-04-02T16:19:55;99808.28;;;10.08;72.75
23953;BME280;12163;49.316;6.092;2023-04-02T16:25:09;99810.72;;;10.00;73.22
23953;BME280;12163;49.316;6.092;2023-04-02T16:27:42;99811.28;;;10.02;73.32
23953;BME280;12163;49.316;6.092;2023-04-02T16:30:34;99819.63;;;10.00;72.85
23953;BME280;12163;49.316;6.092;2023-04-02T16:41:51;99832.88;;;10.02;72.07
23953;BME280;12163;49.316;6.092;2023-04-02T16:44:46;99842.56;;;10.03;71.73
23953;BME280;12163;49.316;6.092;2023-04-02T16:50:29;99857.13;;;10.02;71.89
23953;BME280;12163;49.316;6.092;2023-04-02T16:56:02;99865.22;;;10.02;71.84
23953;BME280;12163;49.316;6.092;2023-04-02T17:01:08;99867.88;;;9.92;70.78
23953;BME280;12163;49.316;6.092;2023-04-02T17:06:38;99878.97;;;9.76;71.17
23953;BME280;12163;49.316;6.092;2023-04-02T17:09:30;99893.25;;;9.71;71.36
23953;BME280;12163;49.316;6.092;2023-04-02T17:12:21;99895.16;;;9.66;71.48
23953;BME280;12163;49.316;6.092;2023-04-02T17:14:55;99904.31;;;9.65;71.49
23953;BME280;12163;49.316;6.092;2023-04-02T17:17:24;99905.66;;;9.62;71.64
23953;BME280;12163;49.316;6.092;2023-04-02T17:19:54;99906.47;;;9.63;71.67
23953;BME280;12163;49.316;6.092;2023-04-02T17:22:21;99911.59;;;9.64;71.60